Hiyodori — JD2366 — position and weather

sailwx.info

Track history (hours):
 
Tides and Currents Weather Stations Pressure Air Temp Water Temp Dewpoint Dewpoint Depression Visibility Wind Speed Wind Dir Waves Ship Positions

Hiyodori

Last reported at 2014-Nov-22 09:07 UTC. Time now 2014-Nov-23 12:20 UTC.
Position N 35°12' E 139°46'.

Length 88 m; draft 3.6 m.

Type: Cargo ship. MMSI: 431000132.

Date/timePositionNaut miles runAvg speedWind from/ knotsBaromVisibWave heightAir tempDewpointWater temp
2014-Nov-22 09:07N 35°12' E 139°46'712.7
2014-Nov-22 08:33N 35°19' E 139°43'6 5.5
2014-Nov-22 07:33N 35°24' E 139°41'0 0.2
2014-Nov-22 06:33N 35°24' E 139°41'6 5.6
2014-Nov-22 05:33N 35°28' E 139°45'3 3.0
2014-Nov-22 04:33N 35°25' E 139°46'1211.4
2014-Nov-22 03:33N 35°14' E 139°47'3 0.1
2014-Nov-20 07:12N 35°11' E 139°46'812.1
2014-Nov-20 06:34N 35°19' E 139°43'1110.9
2014-Nov-20 05:33N 35°28' E 139°49'9 7.3
2014-Nov-20 04:24N 35°36' E 139°46'4 5.0
2014-Nov-20 03:33N 35°34' E 139°50'3 3.3
2014-Nov-20 02:33N 35°30' E 139°50'0 0.0
2014-Nov-20 01:34N 35°30' E 139°50'0 0.0
2014-Nov-20 00:33N 35°30' E 139°50'0 0.0
2014-Nov-19 18:16N 35°30' E 139°50'5 6.7
2014-Nov-19 17:33N 35°26' E 139°47'1111.1
2014-Nov-19 16:33N 35°15' E 139°47'3 0.1
2014-Nov-18 06:06N 35°12' E 139°46'612.0
2014-Nov-18 05:33N 35°18' E 139°44'9 8.7
2014-Nov-18 04:33N 35°26' E 139°41'0 0.1
2014-Nov-18 03:33N 35°27' E 139°41'2 1.9
2014-Nov-18 02:33N 35°25' E 139°42'1 1.4
2014-Nov-18 01:33N 35°24' E 139°41'2 2.2
2014-Nov-18 00:33N 35°22' E 139°42'17 0.5
2014-Nov-16 13:30N 35°06' E 139°45'1212.5
2014-Nov-16 12:33N 35°17' E 139°45'7 7.4
2014-Nov-16 11:33N 35°24' E 139°41'0 0.0
2014-Nov-16 10:33N 35°24' E 139°41'1 0.6
2014-Nov-16 09:33N 35°23' E 139°41'2 2.3
2014-Nov-16 08:33N 35°23' E 139°44'0 0.1
2014-Nov-16 07:33N 35°23' E 139°44'0 0.0
2014-Nov-16 06:33N 35°23' E 139°44'1 0.7
2014-Nov-16 05:33N 35°22' E 139°43'19 0.4
2014-Nov-14 10:21N 35°03' E 139°45'1012.8
2014-Nov-14 09:33N 35°13' E 139°46'1211.8
2014-Nov-14 08:33N 35°25' E 139°44'1110.5
2014-Nov-14 07:32N 35°35' E 139°48'2 0.9
2014-Nov-14 05:33N 35°34' E 139°49'9 8.5
2014-Nov-14 04:33N 35°27' E 139°43'1 0.6
2014-Nov-14 03:33N 35°28' E 139°42'3 3.0
2014-Nov-14 02:33N 35°29' E 139°45'0 0.3
2014-Nov-14 01:32N 35°29' E 139°45'1111.2
2014-Nov-14 00:33N 35°18' E 139°45'  
Track history (hours):
 
Tides and Currents Weather Stations Pressure Air Temp Water Temp Dewpoint Dewpoint Depression Visibility Wind Speed Wind Dir Waves Ship Positions

Hiyodori

Last reported at 2014-Nov-22 09:07 UTC. Time now 2014-Nov-23 12:20 UTC.
Position N 35°12' E 139°46'.

Length 88 m; draft 3.6 m.

Type: Cargo ship. MMSI: 431000132.

Date/timePositionNaut miles runAvg speedWind from/ knotsBaromVisibWave heightAir tempDewpointWater temp
2014-Nov-22 09:07N 35°12' E 139°46'712.7
2014-Nov-22 08:33N 35°19' E 139°43'6 5.5
2014-Nov-22 07:33N 35°24' E 139°41'0 0.2
2014-Nov-22 06:33N 35°24' E 139°41'6 5.6
2014-Nov-22 05:33N 35°28' E 139°45'3 3.0
2014-Nov-22 04:33N 35°25' E 139°46'1211.4
2014-Nov-22 03:33N 35°14' E 139°47'3 0.1
2014-Nov-20 07:12N 35°11' E 139°46'812.1
2014-Nov-20 06:34N 35°19' E 139°43'1110.9
2014-Nov-20 05:33N 35°28' E 139°49'9 7.3
2014-Nov-20 04:24N 35°36' E 139°46'4 5.0
2014-Nov-20 03:33N 35°34' E 139°50'3 3.3
2014-Nov-20 02:33N 35°30' E 139°50'0 0.0
2014-Nov-20 01:34N 35°30' E 139°50'0 0.0
2014-Nov-20 00:33N 35°30' E 139°50'0 0.0
2014-Nov-19 18:16N 35°30' E 139°50'5 6.7
2014-Nov-19 17:33N 35°26' E 139°47'1111.1
2014-Nov-19 16:33N 35°15' E 139°47'3 0.1
2014-Nov-18 06:06N 35°12' E 139°46'612.0
2014-Nov-18 05:33N 35°18' E 139°44'9 8.7
2014-Nov-18 04:33N 35°26' E 139°41'0 0.1
2014-Nov-18 03:33N 35°27' E 139°41'2 1.9
2014-Nov-18 02:33N 35°25' E 139°42'1 1.4
2014-Nov-18 01:33N 35°24' E 139°41'2 2.2
2014-Nov-18 00:33N 35°22' E 139°42'17 0.5
2014-Nov-16 13:30N 35°06' E 139°45'1212.5
2014-Nov-16 12:33N 35°17' E 139°45'7 7.4
2014-Nov-16 11:33N 35°24' E 139°41'0 0.0
2014-Nov-16 10:33N 35°24' E 139°41'1 0.6
2014-Nov-16 09:33N 35°23' E 139°41'2 2.3
2014-Nov-16 08:33N 35°23' E 139°44'0 0.1
2014-Nov-16 07:33N 35°23' E 139°44'0 0.0
2014-Nov-16 06:33N 35°23' E 139°44'1 0.7
2014-Nov-16 05:33N 35°22' E 139°43'19 0.4
2014-Nov-14 10:21N 35°03' E 139°45'1012.8
2014-Nov-14 09:33N 35°13' E 139°46'1211.8
2014-Nov-14 08:33N 35°25' E 139°44'1110.5
2014-Nov-14 07:32N 35°35' E 139°48'2 0.9
2014-Nov-14 05:33N 35°34' E 139°49'9 8.5
2014-Nov-14 04:33N 35°27' E 139°43'1 0.6
2014-Nov-14 03:33N 35°28' E 139°42'3 3.0
2014-Nov-14 02:33N 35°29' E 139°45'0 0.3
2014-Nov-14 01:32N 35°29' E 139°45'1111.2
2014-Nov-14 00:33N 35°18' E 139°45'  

Dump ship's entire track history